KAND/AND METAR and TAF weather

Enter ICAO airport designator
Station Type Date Time Source
KAND METAR 2019/06/20 06:56 UTC NOAA

KAND 200656Z AUTO 23008KT 10SM CLR 23/21 A2979 RMK AO2 SLP077 T02330211


Station Type Date Time Source
KAND Decoded METAR 2019/06/20 06:56 UTC NOAA

ANDERSON COUNTY AIRPORT, SC, United States (KAND) 34-30N 82-43W 239M
Jun 20, 2019 - 02:56 AM EDT / 2019.06.20 0656 UTC
Wind: from the SW (230 degrees) at 9 MPH (8 KT):0
Visibility: 10 mile(s):0
Sky conditions: clear
Temperature: 73.9 F (23.3 C)
Dew Point: 70.0 F (21.1 C)
Relative Humidity: 87%
Pressure (altimeter): 29.79 in. Hg (1008 hPa)
ob: KAND 200656Z AUTO 23008KT 10SM CLR 23/21 A2979 RMK AO2 SLP077 T02330211
cycle: 7

Station Type Date Time Source
KAND TAF 2019/06/20 06:36 UTC NOAA

TAF KAND 200534Z 2006/2106 24005KT P6SM FEW250
FM201200 23011KT P6SM SCT100
FM201500 26014G23KT P6SM SCT030 PROB30 2020/2023 4SM TSRA BKN030CB BKN035
FM210000 23014G22KT P6SM FEW150

Example: see airport list